createdAt,value
2018-06-09T00:01:11.126Z,34.77
2018-06-09T00:03:40.162Z,33.93
2018-06-09T00:06:09.155Z,35.23
2018-06-09T00:08:38.135Z,34.63
2018-06-09T00:11:07.223Z,33.77
2018-06-09T00:13:36.208Z,32.17
2018-06-09T00:16:05.011Z,34.50
2018-06-09T00:18:33.889Z,34.63
2018-06-09T00:21:02.845Z,35.87
2018-06-09T00:23:31.869Z,36.27
2018-06-09T00:26:00.864Z,36.03
2018-06-09T00:28:29.837Z,36.53
2018-06-09T00:30:58.837Z,33.97
2018-06-09T00:33:27.797Z,35.63
2018-06-09T00:35:56.851Z,36.23
2018-06-09T00:38:25.816Z,36.03
2018-06-09T00:40:54.779Z,37.23
2018-06-09T00:43:23.780Z,35.40
2018-06-09T00:45:54.457Z,35.00
2018-06-09T00:48:23.551Z,35.83
2018-06-09T00:50:52.657Z,39.80
2018-06-09T00:53:21.721Z,34.30
2018-06-09T00:55:55.253Z,36.03
2018-06-09T00:58:24.245Z,37.50
2018-06-09T01:00:53.227Z,38.93
2018-06-09T01:03:22.249Z,38.33
2018-06-09T01:05:51.309Z,37.30
2018-06-09T01:08:20.305Z,38.70
2018-06-09T01:10:49.325Z,40.33
2018-06-09T01:13:18.375Z,39.63
2018-06-09T01:15:47.422Z,40.27
2018-06-09T01:18:16.467Z,40.73
2018-06-09T01:20:45.489Z,40.53
2018-06-09T01:23:14.584Z,39.27
2018-06-09T01:25:43.624Z,38.17
2018-06-09T01:28:12.629Z,41.13
2018-06-09T01:30:41.772Z,38.23
2018-06-09T01:33:10.803Z,37.67
2018-06-09T01:35:39.853Z,39.07
2018-06-09T01:38:08.882Z,39.43
2018-06-09T01:40:37.862Z,40.13
2018-06-09T01:43:06.938Z,36.50
2018-06-09T01:45:35.939Z,37.17
2018-06-09T01:48:05.143Z,38.60
2018-06-09T01:50:34.225Z,37.17
2018-06-09T01:53:03.285Z,37.00
2018-06-09T01:55:32.322Z,41.57
2018-06-09T01:58:01.495Z,39.10
2018-06-09T02:00:30.474Z,39.23
2018-06-09T02:02:59.606Z,41.90
2018-06-09T02:05:28.626Z,41.50
2018-06-09T02:07:57.629Z,39.43
2018-06-09T02:10:26.807Z,37.90
2018-06-09T02:12:55.842Z,41.93
2018-06-09T02:15:24.904Z,42.33
2018-06-09T02:17:53.958Z,43.20
2018-06-09T02:20:23.652Z,43.10
2018-06-09T02:22:52.655Z,44.03
2018-06-09T02:25:21.687Z,41.10
2018-06-09T02:27:50.735Z,40.47
2018-06-09T02:30:19.727Z,45.23
2018-06-09T02:32:48.728Z,40.13
2018-06-09T02:35:17.732Z,43.90
2018-06-09T02:37:46.742Z,45.33
2018-06-09T02:40:15.746Z,43.03
2018-06-09T02:42:44.791Z,42.97
2018-06-09T02:45:14.183Z,43.53
2018-06-09T02:47:43.205Z,43.47
2018-06-09T02:50:12.312Z,44.90
2018-06-09T02:52:41.319Z,48.97
2018-06-09T02:55:10.403Z,42.37
2018-06-09T02:57:39.449Z,43.70
2018-06-09T03:00:08.455Z,43.87
2018-06-09T03:02:37.427Z,45.57
2018-06-09T03:05:06.607Z,47.13
2018-06-09T03:07:35.595Z,48.33
2018-06-09T03:10:04.647Z,46.30
2018-06-09T03:12:33.636Z,50.67
2018-06-09T03:15:02.638Z,51.50
2018-06-09T03:17:31.675Z,46.53
2018-06-09T03:20:00.676Z,49.40
2018-06-09T03:22:29.686Z,45.00
2018-06-09T03:24:58.705Z,50.77
2018-06-09T03:27:27.828Z,51.00
2018-06-09T03:29:56.827Z,50.30
2018-06-09T03:32:25.860Z,49.67
2018-06-09T03:34:55.600Z,52.33
2018-06-09T03:37:24.631Z,52.67
2018-06-09T03:39:53.623Z,50.57
2018-06-09T03:42:22.623Z,53.33
2018-06-09T03:44:51.640Z,53.20
2018-06-09T03:47:20.712Z,51.33
2018-06-09T03:49:49.746Z,54.73
2018-06-09T03:52:18.757Z,49.20
2018-06-09T03:54:47.498Z,56.60
2018-06-09T03:57:16.461Z,58.10
2018-06-09T03:59:45.462Z,58.60
2018-06-09T04:02:14.450Z,57.37
2018-06-09T04:04:43.499Z,50.50
2018-06-09T04:07:12.528Z,51.53
2018-06-09T04:09:41.524Z,56.23
2018-06-09T04:12:10.502Z,54.10
2018-06-09T04:14:39.585Z,57.40
2018-06-09T04:17:08.599Z,50.90
2018-06-09T04:19:37.616Z,52.87
2018-06-09T04:22:06.622Z,55.67
2018-06-09T04:24:35.617Z,53.17
2018-06-09T04:27:04.746Z,53.77
2018-06-09T04:29:33.881Z,52.23
2018-06-09T04:32:02.965Z,45.73
2018-06-09T04:34:31.943Z,52.50
2018-06-09T04:37:00.914Z,51.93
2018-06-09T04:39:29.913Z,55.43
2018-06-09T04:41:58.876Z,51.23
2018-06-09T04:44:27.858Z,52.53
2018-06-09T04:46:56.832Z,50.53
2018-06-09T04:49:25.840Z,50.57
2018-06-09T04:51:54.850Z,53.77
2018-06-09T04:54:23.906Z,51.03
2018-06-09T04:56:52.890Z,52.03
2018-06-09T04:59:21.916Z,51.70
2018-06-09T05:01:50.918Z,50.00
2018-06-09T05:04:19.935Z,47.07
2018-06-09T05:06:48.978Z,52.37
2018-06-09T05:09:17.975Z,52.77
2018-06-09T05:11:46.989Z,54.03
2018-06-09T05:14:15.978Z,53.73
2018-06-09T05:16:44.990Z,52.67
2018-06-09T05:19:14.006Z,44.73
2018-06-09T05:21:43.022Z,50.10
2018-06-09T05:24:11.984Z,49.07
2018-06-09T05:26:40.964Z,50.13
2018-06-09T05:29:09.972Z,49.03
2018-06-09T05:31:38.966Z,47.33
2018-06-09T05:34:07.973Z,46.97
2018-06-09T05:36:36.964Z,49.83
2018-06-09T05:39:07.928Z,47.77
2018-06-09T05:41:36.893Z,45.40
2018-06-09T05:44:05.885Z,46.77
2018-06-09T05:46:34.881Z,46.93
2018-06-09T05:49:04.013Z,45.87
2018-06-09T05:51:32.990Z,49.97
2018-06-09T05:54:01.946Z,48.10
2018-06-09T05:56:30.893Z,45.13
2018-06-09T05:58:59.970Z,46.30
2018-06-09T06:01:28.949Z,48.40
2018-06-09T06:03:57.818Z,47.07
2018-06-09T06:06:26.698Z,48.33
2018-06-09T06:08:55.734Z,46.20
2018-06-09T06:11:24.731Z,47.47
2018-06-09T06:13:53.693Z,48.83
2018-06-09T06:16:22.657Z,46.60
2018-06-09T06:18:51.774Z,46.67
2018-06-09T06:21:20.725Z,47.50
2018-06-09T06:23:49.817Z,47.30
2018-06-09T06:26:18.815Z,43.90
2018-06-09T06:28:47.821Z,44.77
2018-06-09T06:31:16.800Z,44.90
2018-06-09T06:33:45.773Z,42.73
2018-06-09T06:36:14.761Z,43.77
2018-06-09T06:38:43.497Z,43.30
2018-06-09T06:41:12.377Z,42.17
2018-06-09T06:43:41.385Z,40.83
2018-06-09T06:46:10.439Z,39.53
2018-06-09T06:48:39.441Z,42.00
2018-06-09T06:51:08.457Z,41.40
2018-06-09T06:53:37.458Z,40.33
2018-06-09T06:56:06.455Z,39.67
2018-06-09T06:58:35.437Z,42.03
2018-06-09T07:01:04.455Z,43.23
2018-06-09T07:03:33.427Z,40.00
2018-06-09T07:06:02.493Z,38.87
2018-06-09T07:08:31.261Z,40.83
2018-06-09T07:11:00.199Z,38.90
2018-06-09T07:13:29.216Z,40.17
2018-06-09T07:15:58.149Z,38.73
2018-06-09T07:18:27.255Z,39.10
2018-06-09T07:20:56.269Z,37.27
2018-06-09T07:23:25.265Z,39.07
2018-06-09T07:25:54.256Z,37.03
2018-06-09T07:28:23.281Z,35.57
2018-06-09T07:30:52.301Z,34.87
2018-06-09T07:33:21.419Z,36.60
2018-06-09T07:35:50.449Z,35.70
2018-06-09T07:38:19.460Z,35.87
2018-06-09T07:40:48.495Z,36.70
2018-06-09T07:43:18.017Z,36.33
2018-06-09T07:45:47.305Z,36.20
2018-06-09T07:48:16.357Z,36.93
2018-06-09T07:50:45.423Z,35.93
2018-06-09T07:53:14.427Z,35.23
2018-06-09T07:55:43.403Z,35.33
2018-06-09T07:58:12.475Z,35.27
2018-06-09T08:00:41.434Z,34.03
2018-06-09T08:03:10.497Z,34.67
2018-06-09T08:05:39.499Z,32.60
2018-06-09T08:08:08.474Z,33.57
2018-06-09T08:10:37.446Z,33.90
2018-06-09T08:13:06.422Z,33.80
2018-06-09T08:15:35.374Z,33.20
2018-06-09T08:18:04.372Z,33.50
2018-06-09T08:20:33.412Z,32.23
2018-06-09T08:23:02.371Z,32.23
2018-06-09T08:25:31.337Z,34.37
2018-06-09T08:28:00.319Z,33.70
2018-06-09T08:30:29.490Z,31.47
2018-06-09T08:32:58.458Z,34.13
2018-06-09T08:35:27.450Z,32.40
2018-06-09T08:37:56.583Z,33.73
2018-06-09T08:40:25.617Z,33.30
2018-06-09T08:42:54.596Z,35.00
2018-06-09T08:45:23.616Z,33.67
2018-06-09T08:47:52.613Z,33.40
2018-06-09T08:50:21.369Z,32.47
2018-06-09T08:52:50.352Z,33.07
2018-06-09T08:55:19.352Z,32.70
2018-06-09T08:57:48.476Z,33.30
2018-06-09T09:00:17.520Z,32.23
2018-06-09T09:02:46.505Z,32.43
2018-06-09T09:05:15.487Z,32.93
2018-06-09T09:07:44.526Z,30.43
2018-06-09T09:10:13.542Z,31.50
2018-06-09T09:12:42.517Z,31.20
2018-06-09T09:15:11.673Z,32.13
2018-06-09T09:17:40.653Z,31.50
2018-06-09T09:20:09.636Z,30.57
2018-06-09T09:22:38.375Z,30.67
2018-06-09T09:25:07.258Z,30.60
2018-06-09T09:27:36.255Z,32.67
2018-06-09T09:30:05.286Z,32.93
2018-06-09T09:32:34.358Z,31.67
2018-06-09T09:35:04.034Z,31.40
2018-06-09T09:37:33.105Z,31.03
2018-06-09T09:40:01.804Z,30.67
2018-06-09T09:42:30.705Z,31.00
2018-06-09T09:44:59.693Z,31.33
2018-06-09T09:47:28.717Z,30.07
2018-06-09T09:49:57.849Z,29.57
2018-06-09T09:52:26.857Z,30.17
2018-06-09T09:54:55.878Z,30.13
2018-06-09T09:57:24.870Z,28.10
2018-06-09T09:59:53.873Z,28.30
2018-06-09T10:02:22.877Z,28.80
2018-06-09T10:04:51.877Z,28.13
2018-06-09T10:07:20.856Z,29.80
2018-06-09T10:09:50.050Z,30.90
2018-06-09T10:12:19.041Z,27.67
2018-06-09T10:14:48.126Z,30.90
2018-06-09T10:17:17.133Z,30.77
2018-06-09T10:19:46.167Z,30.00
2018-06-09T10:22:14.917Z,29.43
2018-06-09T10:24:43.792Z,30.70
2018-06-09T10:27:12.785Z,30.60
2018-06-09T10:29:41.793Z,30.53
2018-06-09T10:32:10.826Z,28.97
2018-06-09T10:34:39.865Z,31.33
2018-06-09T10:37:08.979Z,30.97
2018-06-09T10:39:37.979Z,31.70
2018-06-09T10:42:07.156Z,31.73
2018-06-09T10:44:36.161Z,30.10
2018-06-09T10:47:05.177Z,32.27
2018-06-09T10:49:34.193Z,30.00
2018-06-09T10:52:03.251Z,32.57
2018-06-09T10:54:32.219Z,30.33
2018-06-09T10:57:01.205Z,29.33
2018-06-09T10:59:30.235Z,27.97
2018-06-09T11:01:59.257Z,28.50
2018-06-09T11:04:28.005Z,26.43
2018-06-09T11:06:56.923Z,29.90
2018-06-09T11:09:25.900Z,30.93
2018-06-09T11:11:54.916Z,32.30
2018-06-09T11:14:23.885Z,29.10
2018-06-09T11:16:52.877Z,29.00
2018-06-09T11:19:21.873Z,28.40
2018-06-09T11:21:50.960Z,27.13
2018-06-09T11:24:20.033Z,28.00
2018-06-09T11:26:49.018Z,28.73
2018-06-09T11:29:18.045Z,28.50
2018-06-09T11:31:47.034Z,28.43
2018-06-09T11:34:16.016Z,29.40
2018-06-09T11:36:45.008Z,30.77
2018-06-09T11:39:13.998Z,33.10
2018-06-09T11:41:42.991Z,30.07
2018-06-09T11:44:12.086Z,30.23
2018-06-09T11:46:41.067Z,28.43
2018-06-09T11:49:10.055Z,31.47
2018-06-09T11:51:39.053Z,31.20
2018-06-09T11:54:08.890Z,29.83
2018-06-09T11:56:37.887Z,31.03
2018-06-09T11:59:07.113Z,31.17
2018-06-09T12:01:36.332Z,29.83
2018-06-09T12:04:05.414Z,28.17
2018-06-09T12:06:34.399Z,27.63
2018-06-09T12:09:04.506Z,29.47
2018-06-09T12:11:33.543Z,29.40
2018-06-09T12:14:02.518Z,28.80
2018-06-09T12:16:31.496Z,27.63
2018-06-09T12:19:00.484Z,26.90
2018-06-09T12:21:29.546Z,28.70
2018-06-09T12:23:58.538Z,27.60
2018-06-09T12:26:27.512Z,29.37
2018-06-09T12:28:56.518Z,27.40
2018-06-09T12:31:25.579Z,29.10
2018-06-09T12:33:54.613Z,27.23
2018-06-09T12:36:23.799Z,27.40
2018-06-09T12:38:52.745Z,25.97
2018-06-09T12:41:21.771Z,26.47
2018-06-09T12:43:50.830Z,27.23
2018-06-09T12:46:19.794Z,27.53
2018-06-09T12:48:48.799Z,24.90
2018-06-09T12:51:17.495Z,26.67
2018-06-09T12:53:46.530Z,29.63
2018-06-09T12:56:15.522Z,28.87
2018-06-09T12:58:44.494Z,28.97
2018-06-09T13:01:13.539Z,29.27
2018-06-09T13:03:42.598Z,28.93
2018-06-09T13:06:11.604Z,28.10
2018-06-09T13:08:40.563Z,28.63
2018-06-09T13:11:09.603Z,27.77
2018-06-09T13:13:38.674Z,28.80
2018-06-09T13:16:07.758Z,26.00
2018-06-09T13:18:36.890Z,27.53
2018-06-09T13:21:06.091Z,27.53
2018-06-09T13:23:35.117Z,26.10
2018-06-09T13:26:04.102Z,25.20
2018-06-09T13:28:33.165Z,27.07
2018-06-09T13:31:02.157Z,24.60
2018-06-09T13:33:31.153Z,23.70
2018-06-09T13:36:00.182Z,24.97
2018-06-09T13:38:29.129Z,24.87
2018-06-09T13:40:58.142Z,23.67
2018-06-09T13:43:27.187Z,26.23
2018-06-09T13:45:56.155Z,25.23
2018-06-09T13:48:25.196Z,25.10
2018-06-09T13:50:53.893Z,25.40
2018-06-09T13:53:22.920Z,22.70
2018-06-09T13:55:51.924Z,23.57
2018-06-09T13:58:20.963Z,23.43
2018-06-09T14:00:49.933Z,22.30
2018-06-09T14:03:18.957Z,24.73
2018-06-09T14:05:47.965Z,21.23
2018-06-09T14:08:16.969Z,22.23
2018-06-09T14:10:45.946Z,22.23
2018-06-09T14:13:15.118Z,21.17
2018-06-09T14:15:44.167Z,24.47
2018-06-09T14:18:13.170Z,26.63
2018-06-09T14:20:42.160Z,24.00
2018-06-09T14:23:11.133Z,26.03
2018-06-09T14:25:40.231Z,23.63
2018-06-09T14:28:09.307Z,22.67
2018-06-09T14:30:38.025Z,21.97
2018-06-09T14:33:06.928Z,21.40
2018-06-09T14:35:35.940Z,21.10
2018-06-09T14:38:05.082Z,21.10
2018-06-09T14:40:34.278Z,19.53
2018-06-09T14:43:03.328Z,17.87
2018-06-09T14:45:32.334Z,16.90
2018-06-09T14:48:01.296Z,16.60
2018-06-09T14:50:30.328Z,17.47
2018-06-09T14:52:59.327Z,17.53
2018-06-09T14:55:28.158Z,17.03
2018-06-09T14:57:57.020Z,17.60
2018-06-09T15:00:26.088Z,16.07
2018-06-09T15:02:55.062Z,15.33
2018-06-09T15:05:24.095Z,17.17
2018-06-09T15:07:53.146Z,17.53
2018-06-09T15:10:22.114Z,16.47
2018-06-09T15:12:51.078Z,19.23
2018-06-09T15:15:20.149Z,16.97
2018-06-09T15:17:49.192Z,18.17
2018-06-09T15:20:18.106Z,19.60
2018-06-09T15:22:50.162Z,17.50
2018-06-09T15:25:19.146Z,18.80
2018-06-09T15:27:48.240Z,16.60
2018-06-09T15:30:17.334Z,16.90
2018-06-09T15:32:46.322Z,16.40
2018-06-09T15:35:15.396Z,15.87
2018-06-09T15:37:44.419Z,15.00
2018-06-09T15:40:13.404Z,14.17
2018-06-09T15:42:42.402Z,13.30
2018-06-09T15:45:11.504Z,13.87
2018-06-09T15:47:40.479Z,13.70
2018-06-09T15:50:09.484Z,13.17
2018-06-09T15:52:38.483Z,12.67
2018-06-09T15:55:07.500Z,12.57
2018-06-09T15:57:36.522Z,12.00
2018-06-09T16:00:05.678Z,13.03
2018-06-09T16:02:34.675Z,12.10
2018-06-09T16:05:03.768Z,11.37
2018-06-09T16:07:32.848Z,11.50
2018-06-09T16:10:01.858Z,10.83
2018-06-09T16:12:30.834Z,12.10
2018-06-09T16:14:59.832Z,12.87
2018-06-09T16:17:28.786Z,11.50
2018-06-09T16:19:57.783Z,12.20
2018-06-09T16:22:26.753Z,12.80
2018-06-09T16:24:55.734Z,12.83
2018-06-09T16:27:24.724Z,12.30
2018-06-09T16:29:53.790Z,11.30
2018-06-09T16:32:22.735Z,11.17
2018-06-09T16:34:51.749Z,11.53
2018-06-09T16:37:20.758Z,12.03
2018-06-09T16:39:49.722Z,11.77
2018-06-09T16:42:18.718Z,11.97
2018-06-09T16:44:47.812Z,11.07
2018-06-09T16:47:16.870Z,10.80
2018-06-09T16:49:45.858Z,12.00
2018-06-09T16:52:14.828Z,11.27
2018-06-09T16:54:43.874Z,11.57
2018-06-09T16:57:12.918Z,11.90
2018-06-09T16:59:41.936Z,10.77
2018-06-09T17:02:10.925Z,11.90
2018-06-09T17:04:40.514Z,10.73
2018-06-09T17:07:09.568Z,10.37
2018-06-09T17:09:38.581Z,10.80
2018-06-09T17:12:07.621Z,10.53
2018-06-09T17:14:36.609Z,11.57
2018-06-09T17:17:05.645Z,10.10
2018-06-09T17:19:34.620Z,11.07
2018-06-09T17:22:03.596Z,10.40
2018-06-09T17:24:32.766Z,11.10
2018-06-09T17:27:01.809Z,10.20
2018-06-09T17:29:30.793Z,10.50
2018-06-09T17:31:59.881Z,9.03
2018-06-09T17:34:28.906Z,10.10
2018-06-09T17:36:57.926Z,10.90
2018-06-09T17:39:26.877Z,9.70
2018-06-09T17:41:55.883Z,10.17
2018-06-09T17:44:24.889Z,9.73
2018-06-09T17:46:54.041Z,10.23
2018-06-09T17:49:23.311Z,10.00
2018-06-09T17:51:52.403Z,10.93
2018-06-09T17:54:21.505Z,11.10
2018-06-09T17:56:50.581Z,10.67
2018-06-09T17:59:19.593Z,9.90
2018-06-09T18:01:48.644Z,10.23
2018-06-09T18:04:17.785Z,10.80
2018-06-09T18:06:46.881Z,10.40
2018-06-09T18:09:15.990Z,11.17
2018-06-09T18:11:45.077Z,10.40
2018-06-09T18:14:14.109Z,10.73
2018-06-09T18:16:43.312Z,9.47
2018-06-09T18:19:12.276Z,10.23
2018-06-09T18:21:41.249Z,10.77
2018-06-09T18:24:10.291Z,10.53
2018-06-09T18:26:39.341Z,9.67
2018-06-09T18:29:08.333Z,11.30
2018-06-09T18:31:37.300Z,9.80
2018-06-09T18:34:06.353Z,10.50
2018-06-09T18:36:35.398Z,10.63
2018-06-09T18:39:07.402Z,10.33
2018-06-09T18:41:36.801Z,9.93
2018-06-09T18:44:05.876Z,10.27
2018-06-09T18:46:34.973Z,11.00
2018-06-09T18:49:03.933Z,10.97
2018-06-09T18:51:32.909Z,9.83
2018-06-09T18:54:01.948Z,10.47
2018-06-09T18:56:30.966Z,10.90
2018-06-09T18:58:59.945Z,10.90
2018-06-09T19:01:28.929Z,12.93
2018-06-09T19:03:57.935Z,12.57
2018-06-09T19:06:26.945Z,13.53
2018-06-09T19:08:56.163Z,13.13
2018-06-09T19:11:25.179Z,13.97
2018-06-09T19:13:54.181Z,15.57
2018-06-09T19:16:23.386Z,15.53
2018-06-09T19:18:52.486Z,15.73
2018-06-09T19:21:21.683Z,16.20
2018-06-09T19:23:53.750Z,17.27
2018-06-09T19:26:23.970Z,16.57
2018-06-09T19:28:53.720Z,17.20
2018-06-09T19:31:22.878Z,16.67
2018-06-09T19:33:51.902Z,17.33
2018-06-09T19:36:21.012Z,16.87
2018-06-09T19:38:50.168Z,17.27
2018-06-09T19:41:26.021Z,16.90
2018-06-09T19:43:55.057Z,17.97
2018-06-09T19:46:24.045Z,17.83
2018-06-09T19:48:53.072Z,17.47
2018-06-09T19:51:22.212Z,18.00
2018-06-09T19:53:51.306Z,17.20
2018-06-09T19:56:20.364Z,19.00
2018-06-09T19:58:49.208Z,18.80
2018-06-09T20:01:18.150Z,17.83
2018-06-09T20:03:47.159Z,16.60
2018-06-09T20:06:15.929Z,17.27
2018-06-09T20:08:44.901Z,18.17
2018-06-09T20:11:13.954Z,18.00
2018-06-09T20:13:42.968Z,18.03
2018-06-09T20:16:12.016Z,18.43
2018-06-09T20:18:41.482Z,18.23
2018-06-09T20:21:10.572Z,19.00
2018-06-09T20:23:39.742Z,19.77
2018-06-09T20:26:08.779Z,18.60
2018-06-09T20:28:37.803Z,20.47
2018-06-09T20:31:06.884Z,20.07
2018-06-09T20:33:35.889Z,19.97
2018-06-09T20:36:04.905Z,21.17
2018-06-09T20:38:33.999Z,20.30
2018-06-09T20:41:03.030Z,18.43
2018-06-09T20:43:32.164Z,20.40
2018-06-09T20:46:01.379Z,20.67
2018-06-09T20:48:30.402Z,19.40
2018-06-09T20:50:59.427Z,20.27
2018-06-09T20:53:28.446Z,21.63
2018-06-09T20:55:57.504Z,21.20
2018-06-09T20:58:30.788Z,21.53
2018-06-09T21:00:59.861Z,21.97
2018-06-09T21:03:28.878Z,21.23
2018-06-09T21:05:58.019Z,20.40
2018-06-09T21:08:26.967Z,21.87
2018-06-09T21:10:56.007Z,22.87
2018-06-09T21:13:25.005Z,21.30
2018-06-09T21:15:54.023Z,21.97
2018-06-09T21:18:23.064Z,23.00
2018-06-09T21:20:52.069Z,22.00
2018-06-09T21:23:21.110Z,21.80
2018-06-09T21:25:50.149Z,22.80
2018-06-09T21:28:25.723Z,21.87
2018-06-09T21:30:59.909Z,23.50
2018-06-09T21:34:15.370Z,22.57
2018-06-09T21:36:49.689Z,22.10
2018-06-09T21:39:24.801Z,23.03
2018-06-09T21:41:59.227Z,23.20
2018-06-09T21:44:33.753Z,23.47
2018-06-09T21:47:02.841Z,22.60
2018-06-09T21:49:31.849Z,23.90
2018-06-09T21:52:00.934Z,24.50
2018-06-09T21:54:29.958Z,23.03
2018-06-09T21:56:59.007Z,22.77
2018-06-09T21:59:28.049Z,23.90
2018-06-09T22:01:57.102Z,22.50
2018-06-09T22:04:26.083Z,24.83
2018-06-09T22:06:55.202Z,24.13
2018-06-09T22:09:24.188Z,23.50
2018-06-09T22:11:53.191Z,23.40
2018-06-09T22:14:22.189Z,24.73
2018-06-09T22:16:50.966Z,24.37
2018-06-09T22:19:19.956Z,24.80
2018-06-09T22:21:49.101Z,24.13
2018-06-09T22:24:18.070Z,24.33
2018-06-09T22:26:47.074Z,23.90
2018-06-09T22:29:16.086Z,23.73
2018-06-09T22:31:45.134Z,23.30
2018-06-09T22:34:14.119Z,24.33
2018-06-09T22:36:43.090Z,24.57
2018-06-09T22:39:12.100Z,25.60
2018-06-09T22:41:41.218Z,25.50
2018-06-09T22:44:10.196Z,25.30
2018-06-09T22:46:39.193Z,25.83
2018-06-09T22:49:08.199Z,27.10
2018-06-09T22:51:37.315Z,25.73
2018-06-09T22:54:06.340Z,26.90
2018-06-09T22:56:35.396Z,25.70
2018-06-09T22:59:04.463Z,24.30
2018-06-09T23:01:33.446Z,26.80
2018-06-09T23:04:02.588Z,26.83
2018-06-09T23:06:31.580Z,24.87
2018-06-09T23:09:00.557Z,26.43
2018-06-09T23:11:29.601Z,24.90
2018-06-09T23:13:58.576Z,26.23
2018-06-09T23:16:27.620Z,24.60
2018-06-09T23:18:56.598Z,26.23
2018-06-09T23:21:25.621Z,27.23
2018-06-09T23:23:54.598Z,26.60
2018-06-09T23:26:23.574Z,27.73
2018-06-09T23:28:52.551Z,27.57
2018-06-09T23:31:21.554Z,27.73
2018-06-09T23:33:50.522Z,28.00
2018-06-09T23:36:19.507Z,27.97
2018-06-09T23:38:48.530Z,29.17
2018-06-09T23:41:17.522Z,27.63
2018-06-09T23:43:46.498Z,29.60
2018-06-09T23:46:15.541Z,27.87
2018-06-09T23:48:44.531Z,28.27
2018-06-09T23:51:13.627Z,29.07
2018-06-09T23:53:42.613Z,29.57
2018-06-09T23:56:11.665Z,28.47
2018-06-09T23:58:40.597Z,29.83
